Heinrich — ZDFF7 — position and weather

sailwx.info

Track history (hours):
 
Tides and Currents Weather Stations Pressure Air Temp Water Temp Dewpoint Dewpoint Depression Visibility Wind Speed Wind Dir Waves Ship Positions

Heinrich

Last reported at 2018-Aug-14 13:26 UTC. Time now 2018-Aug-14 13:45 UTC.
Position N 49°28' E 000°33'.

Length 114 m; draft 6.6 m.

Type: Ship. MMSI: 236165000.

Date/timePositionNaut miles runAvg speedWind from/ knotsBaromVisibWave heightAir tempDewpointWater temp
2018-Aug-14 13:26N 49°28' E 000°33'0 0.1
2018-Aug-14 13:00N 49°28' E 000°33'1 1.4
2018-Aug-14 12:30N 49°28' E 000°32'5 9.0
2018-Aug-14 12:00N 49°27' E 000°25'611.8
2018-Aug-14 11:30N 49°26' E 000°16'611.8
2018-Aug-14 11:00N 49°26' E 000°07'5 9.6
2018-Aug-14 10:30N 49°28' E 000°00'5 9.1
2018-Aug-14 10:00N 49°29' W 000°06'611.4
2018-Aug-14 09:31N 49°34' W 000°11'714.1
2018-Aug-14 09:01N 49°41' W 000°10'714.6
2018-Aug-14 08:31N 49°49' W 000°09'714.8
2018-Aug-14 08:00N 49°56' W 000°08'714.6
2018-Aug-14 07:30N 50°03' W 000°07'713.6
2018-Aug-14 07:00N 50°10' W 000°06'713.6
2018-Aug-14 06:30N 50°17' W 000°05'713.7
2018-Aug-14 05:59N 50°24' W 000°04'1413.4
2018-Aug-14 04:56N 50°31' E 000°16'615.1
2018-Aug-14 04:30N 50°33' E 000°25'714.6
2018-Aug-14 04:00N 50°35' E 000°36'714.0
2018-Aug-14 03:30N 50°39' E 000°45'713.4
2018-Aug-14 03:00N 50°43' E 000°54'612.6
2018-Aug-14 02:30N 50°47' E 001°01'611.8
2018-Aug-14 02:00N 50°50' E 001°09'611.2
2018-Aug-14 01:30N 50°54' E 001°16'510.6
2018-Aug-14 01:00N 50°58' E 001°22'510.6
2018-Aug-14 00:30N 51°02' E 001°27'611.8
2018-Aug-14 00:00N 51°06' E 001°34'612.5
2018-Aug-13 23:30N 51°10' E 001°41'714.2
2018-Aug-13 23:00N 51°16' E 001°48'815.3
2018-Aug-13 22:30N 51°22' E 001°55'611.8
2018-Aug-13 22:01N 51°24' E 002°04'713.6
2018-Aug-13 21:30N 51°21' E 002°14'714.1
2018-Aug-13 21:01N 51°22' E 002°25'714.5
2018-Aug-13 20:30N 51°23' E 002°37'612.0
2018-Aug-13 20:00N 51°22' E 002°46'714.0
2018-Aug-13 19:30N 51°23' E 002°57'714.4
2018-Aug-13 19:01N 51°24' E 003°08'815.1
2018-Aug-13 18:30N 51°24' E 003°21'815.7
2018-Aug-13 18:00N 51°26' E 003°33'611.6
2018-Aug-13 17:30N 51°25' E 003°42'713.8
2018-Aug-13 17:00N 51°21' E 003°51'714.0
2018-Aug-13 16:31N 51°26' E 003°59'611.0
2018-Aug-13 16:00N 51°22' E 004°05'5 9.7
2018-Aug-13 15:30N 51°23' E 004°13'3 6.6
2018-Aug-13 15:01N 51°21' E 004°17'0 0.0
2018-Aug-13 14:30N 51°21' E 004°17'0 0.0
2018-Aug-13 14:00N 51°21' E 004°17'0 0.0
2018-Aug-13 13:30N 51°21' E 004°17'0 0.6
2018-Aug-13 13:00N 51°21' E 004°17'3 6.2
2018-Aug-13 12:30N 51°18' E 004°20'2 4.6
2018-Aug-13 12:00N 51°16' E 004°21'0 0.1
2018-Aug-13 11:30N 51°16' E 004°21'0 0.0
2018-Aug-13 11:00N 51°16' E 004°21'0 0.0
2018-Aug-13 10:21N 51°16' E 004°21'0 0.0
2018-Aug-13 10:00N 51°16' E 004°21'0 0.0
2018-Aug-13 09:21N 51°16' E 004°21'0 0.0
2018-Aug-13 08:51N 51°16' E 004°21'0 0.0
2018-Aug-13 08:27N 51°16' E 004°21'0 0.0
2018-Aug-13 08:00N 51°16' E 004°21'0 0.0
2018-Aug-13 07:30N 51°16' E 004°21'0 0.0
2018-Aug-13 07:00N 51°16' E 004°21'0 0.0
2018-Aug-13 06:30N 51°16' E 004°21'0 0.0
2018-Aug-13 06:00N 51°16' E 004°21'0 0.0
2018-Aug-13 05:30N 51°16' E 004°21'0 0.0
2018-Aug-13 05:00N 51°16' E 004°21'0 0.0
2018-Aug-13 04:24N 51°16' E 004°21'0 0.0
2018-Aug-13 04:00N 51°16' E 004°21'0 0.0
2018-Aug-13 03:30N 51°16' E 004°21'0 0.0
2018-Aug-13 03:00N 51°16' E 004°21'0 0.0
2018-Aug-13 02:30N 51°16' E 004°21'0 0.0
2018-Aug-13 02:00N 51°16' E 004°21'0 0.0
2018-Aug-13 01:24N 51°16' E 004°21'0 0.0
2018-Aug-13 01:00N 51°16' E 004°21'0 0.0
2018-Aug-13 00:27N 51°16' E 004°21'0 0.0
2018-Aug-12 23:45N 51°16' E 004°21'0 0.0
2018-Aug-12 23:30N 51°16' E 004°21'0 0.0
2018-Aug-12 23:00N 51°16' E 004°21'0 0.0
2018-Aug-12 22:24N 51°16' E 004°21'0 0.0
2018-Aug-12 21:57N 51°16' E 004°21'0 0.0
2018-Aug-12 21:24N 51°16' E 004°21'0 0.0
2018-Aug-12 21:00N 51°16' E 004°21'0 0.0
2018-Aug-12 20:30N 51°16' E 004°21'0 0.0
2018-Aug-12 20:00N 51°16' E 004°21'0 0.0
2018-Aug-12 19:30N 51°16' E 004°21'0 0.0
2018-Aug-12 18:57N 51°16' E 004°21'0 0.0
2018-Aug-12 18:30N 51°16' E 004°21'0 0.0
2018-Aug-12 17:57N 51°16' E 004°21'0 0.0
2018-Aug-12 17:30N 51°16' E 004°21'0 0.0
2018-Aug-12 16:57N 51°16' E 004°21'0 0.0
2018-Aug-12 16:30N 51°16' E 004°21'0 0.0
2018-Aug-12 16:00N 51°16' E 004°21'0 0.0
2018-Aug-12 15:24N 51°16' E 004°21'0 0.0
2018-Aug-12 15:00N 51°16' E 004°21'0 0.0
2018-Aug-12 14:30N 51°16' E 004°21'0 0.0
2018-Aug-12 14:00N 51°16' E 004°21'0 0.0
2018-Aug-12 13:30N 51°16' E 004°21'0 0.0
2018-Aug-12 13:00N 51°16' E 004°21'0 0.0
2018-Aug-12 12:30N 51°16' E 004°21'0 0.0
2018-Aug-12 11:57N 51°16' E 004°21'0 0.0
2018-Aug-12 11:30N 51°16' E 004°21'0 0.0
2018-Aug-12 11:00N 51°16' E 004°21'0 0.0
2018-Aug-12 10:30N 51°16' E 004°21'0 0.0
2018-Aug-12 10:00N 51°16' E 004°21'0 0.0
2018-Aug-12 09:27N 51°16' E 004°21'0 0.0
2018-Aug-12 09:00N 51°16' E 004°21'0 0.0
2018-Aug-12 08:24N 51°16' E 004°21'0 0.0
2018-Aug-12 08:00N 51°16' E 004°21'0 0.0
2018-Aug-12 07:30N 51°16' E 004°21'0 0.0
2018-Aug-12 06:54N 51°16' E 004°21'0 0.0
2018-Aug-12 06:30N 51°16' E 004°21'0 0.0
2018-Aug-12 05:57N 51°16' E 004°21'0 0.0
2018-Aug-12 05:30N 51°16' E 004°21'0 0.0
2018-Aug-12 05:00N 51°16' E 004°21'0 0.0
2018-Aug-12 04:30N 51°16' E 004°21'0 0.0
2018-Aug-12 04:00N 51°16' E 004°21'0 0.0
2018-Aug-12 03:30N 51°16' E 004°21'0 0.0
2018-Aug-12 02:57N 51°16' E 004°21'0 0.0
2018-Aug-12 02:30N 51°16' E 004°21'0 0.0
2018-Aug-12 01:57N 51°16' E 004°21'0 0.0
2018-Aug-12 01:30N 51°16' E 004°21'0 0.0
2018-Aug-12 01:00N 51°16' E 004°21'0 0.0
2018-Aug-12 00:30N 51°16' E 004°21'0 0.0
2018-Aug-12 00:00N 51°16' E 004°21'0 0.0
2018-Aug-11 23:30N 51°16' E 004°21'0 0.0
2018-Aug-11 23:00N 51°16' E 004°21'0 0.0
2018-Aug-11 22:30N 51°16' E 004°21'0 0.0
2018-Aug-11 21:51N 51°16' E 004°21'0 0.0
2018-Aug-11 21:30N 51°16' E 004°21'0 0.0
2018-Aug-11 21:00N 51°16' E 004°21'0 0.0
2018-Aug-11 20:30N 51°16' E 004°21'0 0.0
2018-Aug-11 20:00N 51°16' E 004°21'0 0.0
2018-Aug-11 19:21N 51°16' E 004°21'0 0.0
2018-Aug-11 19:00N 51°16' E 004°21'0 0.0
2018-Aug-11 18:27N 51°16' E 004°21'0 0.0
2018-Aug-11 18:00N 51°16' E 004°21'0 0.0
2018-Aug-11 17:30N 51°16' E 004°21'0 0.0
2018-Aug-11 17:00N 51°16' E 004°21'0 0.0
2018-Aug-11 16:30N 51°16' E 004°21'0 0.0
2018-Aug-11 16:00N 51°16' E 004°21'0 0.0
2018-Aug-11 15:21N 51°16' E 004°21'0 0.0
2018-Aug-11 15:00N 51°16' E 004°21'0 0.0
2018-Aug-11 14:30N 51°16' E 004°21'0 0.0
2018-Aug-11 14:00N 51°16' E 004°21'0 0.0
2018-Aug-11 13:30N 51°16' E 004°21'0 0.0
2018-Aug-11 13:00N 51°16' E 004°21'0 0.0
2018-Aug-11 12:30N 51°16' E 004°21'0 0.0
2018-Aug-11 12:00N 51°16' E 004°21'0 0.0
2018-Aug-11 11:30N 51°16' E 004°21'0 0.0
2018-Aug-11 11:00N 51°16' E 004°21'0 0.0
2018-Aug-11 10:30N 51°16' E 004°21'0 0.0
2018-Aug-11 10:00N 51°16' E 004°21'0 0.0
2018-Aug-11 09:21N 51°16' E 004°21'0 0.0
2018-Aug-11 09:00N 51°16' E 004°21'0 0.0
2018-Aug-11 08:30N 51°16' E 004°21'0 0.0
2018-Aug-11 08:00N 51°16' E 004°21'0 0.0
2018-Aug-11 07:30N 51°16' E 004°21'0 0.0
2018-Aug-11 07:00N 51°16' E 004°21'0 0.0
2018-Aug-11 06:30N 51°16' E 004°21'0 0.0
2018-Aug-11 06:00N 51°16' E 004°21'0 0.0
2018-Aug-11 05:27N 51°16' E 004°21'0 0.0
2018-Aug-11 05:00N 51°16' E 004°21'0 0.0
2018-Aug-11 04:30N 51°16' E 004°21'0 0.0
2018-Aug-11 04:00N 51°16' E 004°21'0 0.0
2018-Aug-11 03:30N 51°16' E 004°21'0 0.0
2018-Aug-11 03:00N 51°16' E 004°21'0 0.0
2018-Aug-11 02:30N 51°16' E 004°21'0 0.0
2018-Aug-11 01:57N 51°16' E 004°21'0 0.0
2018-Aug-11 01:30N 51°16' E 004°21'0 0.0
2018-Aug-11 01:00N 51°16' E 004°21'0 0.0
2018-Aug-11 00:30N 51°16' E 004°21'0 0.0
2018-Aug-11 00:00N 51°16' E 004°21'0 0.0
2018-Aug-10 23:27N 51°16' E 004°21'0 0.0
2018-Aug-10 23:00N 51°16' E 004°21'0 0.0
2018-Aug-10 22:24N 51°16' E 004°21'0 0.0
2018-Aug-10 22:00N 51°16' E 004°21'0 0.0
2018-Aug-10 21:30N 51°16' E 004°21'0 0.0
2018-Aug-10 20:57N 51°16' E 004°21'0 0.0
2018-Aug-10 20:30N 51°16' E 004°21'0 0.0
2018-Aug-10 20:00N 51°16' E 004°21'0 0.0
2018-Aug-10 19:30N 51°16' E 004°21'0 0.0
2018-Aug-10 19:00N 51°16' E 004°21'0 0.0
2018-Aug-10 18:30N 51°16' E 004°21'0 0.0
2018-Aug-10 17:51N 51°16' E 004°21'0 0.0
2018-Aug-10 17:30N 51°16' E 004°21'0 0.0
2018-Aug-10 17:00N 51°16' E 004°21'0 0.0
2018-Aug-10 16:30N 51°16' E 004°21'0 0.0
2018-Aug-10 16:00N 51°16' E 004°21'0 0.0
2018-Aug-10 15:30N 51°16' E 004°21'0 0.1
2018-Aug-10 15:00N 51°16' E 004°21'2 3.4
2018-Aug-10 14:30N 51°17' E 004°20'3 5.5
2018-Aug-10 14:00N 51°20' E 004°18'1 2.4
2018-Aug-10 13:31N 51°21' E 004°17'0 0.0
2018-Aug-10 13:00N 51°21' E 004°17'2 3.7
2018-Aug-10 12:30N 51°21' E 004°14'5 9.8
2018-Aug-10 12:01N 51°22' E 004°07'612.3
2018-Aug-10 11:31N 51°25' E 003°58'815.2
2018-Aug-10 11:01N 51°21' E 003°47'815.4
2018-Aug-10 10:30N 51°25' E 003°37'4 8.9
2018-Aug-10 10:00N 51°28' E 003°31'510.9
2018-Aug-10 09:30N 51°32' E 003°25'714.0
2018-Aug-10 09:01N 51°38' E 003°20'713.2
2018-Aug-10 08:30N 51°44' E 003°16'6 1.2
2018-Aug-10 03:30N 51°49' E 003°21'0 0.0
2018-Aug-10 02:57N 51°49' E 003°21'0 0.0
2018-Aug-10 02:24N 51°49' E 003°21'0 0.0
2018-Aug-10 02:00N 51°49' E 003°21'0 0.0
2018-Aug-10 01:30N 51°49' E 003°21'0 0.0
2018-Aug-10 00:57N 51°49' E 003°21'0 0.0
2018-Aug-09 21:36N 51°49' E 003°21'0 0.1
2018-Aug-09 21:24N 51°49' E 003°21'0 0.0
2018-Aug-09 21:00N 51°49' E 003°21'0 0.0
2018-Aug-09 19:24N 51°49' E 003°21'0 0.0
2018-Aug-09 19:00N 51°49' E 003°21'0 0.0
2018-Aug-09 18:27N 51°49' E 003°21'0 0.0
2018-Aug-09 17:54N 51°49' E 003°21'0 0.0
2018-Aug-09 17:21N 51°49' E 003°21'0 0.0
2018-Aug-09 15:51N 51°49' E 003°21'0 0.0
2018-Aug-09 14:27N 51°49' E 003°21'0 0.0
2018-Aug-09 13:06N 51°49' E 003°21'0 0.1
2018-Aug-09 12:51N 51°49' E 003°21'0 0.0
2018-Aug-09 12:24N 51°49' E 003°21'0 0.0
2018-Aug-09 10:12N 51°49' E 003°21'0 0.1
2018-Aug-09 09:57N 51°49' E 003°21'0 0.0
2018-Aug-09 09:30N 51°49' E 003°21'0 0.5
2018-Aug-09 08:59N 51°49' E 003°21'4 8.8
2018-Aug-09 08:29N 51°49' E 003°13'511.1
2018-Aug-09 08:00N 51°50' E 003°05'1011.6
2018-Aug-09 07:06N 52°01' E 003°06'110.6
2018-Aug-09 07:00N 52°02' E 003°06'510.3
2018-Aug-09 06:31N 52°03' E 003°14'610.7
2018-Aug-09 05:59N 52°03' E 003°23'511.1
2018-Aug-09 05:30N 52°03' E 003°32'611.2
2018-Aug-09 05:00N 52°03' E 003°41'510.9
2018-Aug-09 04:30N 52°03' E 003°49'510.0
2018-Aug-09 04:01N 52°01' E 003°57'714.4
2018-Aug-09 03:30N 51°58' E 004°08'713.5
2018-Aug-09 03:01N 51°54' E 004°16'510.2
2018-Aug-09 02:30N 51°51' E 004°22'510.8
2018-Aug-09 02:00N 51°50' E 004°31'4 7.9
2018-Aug-09 01:31N 51°48' E 004°37'4 8.3
2018-Aug-09 01:00N 51°44' E 004°38'3 5.1
2018-Aug-09 00:20N 51°42' E 004°34'0 0.0
2018-Aug-08 23:53N 51°42' E 004°34'0 0.0
2018-Aug-08 23:29N 51°42' E 004°34'0 0.0
2018-Aug-08 22:56N 51°42' E 004°34'0 0.0
2018-Aug-08 22:29N 51°42' E 004°34'0 0.0
2018-Aug-08 21:56N 51°42' E 004°34'0 0.0
2018-Aug-08 21:23N 51°42' E 004°34'0 0.0
2018-Aug-08 20:56N 51°42' E 004°34'0 0.0
2018-Aug-08 20:29N 51°42' E 004°34'0 0.0
2018-Aug-08 19:59N 51°42' E 004°34'0 0.0
2018-Aug-08 19:29N 51°42' E 004°34'0 0.0
2018-Aug-08 18:50N 51°42' E 004°34'0 0.0
2018-Aug-08 18:26N 51°42' E 004°34'0 0.0
2018-Aug-08 17:56N 51°42' E 004°34'0 0.0
2018-Aug-08 17:23N 51°42' E 004°34'0 0.0
2018-Aug-08 16:50N 51°42' E 004°34'0 0.0
2018-Aug-08 16:29N 51°42' E 004°34'0 0.0
2018-Aug-08 15:59N 51°42' E 004°34'0 0.0
2018-Aug-08 15:29N 51°42' E 004°34'0 0.0
2018-Aug-08 14:59N 51°42' E 004°34'0 0.0
2018-Aug-08 14:23N 51°42' E 004°34'0 0.0
2018-Aug-08 13:59N 51°42' E 004°34'0 0.0
2018-Aug-08 13:26N 51°42' E 004°34'0 0.0
2018-Aug-08 12:53N 51°42' E 004°34'0 0.0
2018-Aug-08 12:05N 51°42' E 004°34'0 0.0
2018-Aug-08 11:50N 51°42' E 004°34'0 0.0
2018-Aug-08 11:23N 51°42' E 004°34'0 0.0
2018-Aug-08 10:59N 51°42' E 004°34'0 0.0
2018-Aug-08 10:23N 51°42' E 004°34'0 0.0
2018-Aug-08 09:56N 51°42' E 004°34'0 0.0
2018-Aug-08 09:23N 51°42' E 004°34'0 0.0
2018-Aug-08 08:56N 51°42' E 004°34'0 0.0
2018-Aug-08 07:44N 51°42' E 004°34'0 0.0
2018-Aug-08 07:29N 51°42' E 004°34'0 0.0
2018-Aug-08 06:47N 51°42' E 004°34'0 0.0
2018-Aug-08 06:14N 51°42' E 004°34'0 0.0
2018-Aug-08 05:59N 51°42' E 004°34'0 0.0
2018-Aug-08 05:29N 51°42' E 004°34'0 0.0
2018-Aug-08 04:59N 51°42' E 004°34'0 0.0
2018-Aug-08 04:23N 51°42' E 004°34'0 0.0
2018-Aug-08 03:17N 51°42' E 004°34'0 0.0
2018-Aug-08 02:17N 51°42' E 004°34'0 0.0
2018-Aug-08 01:59N 51°42' E 004°34'0 0.0
2018-Aug-08 01:20N 51°42' E 004°34'0 0.0
2018-Aug-08 00:59N 51°42' E 004°34'0 0.0
2018-Aug-08 00:29N 51°42' E 004°34'0 0.0
2018-Aug-07 23:59N 51°42' E 004°34'0 0.0
2018-Aug-07 23:29N 51°42' E 004°34'0 0.0
2018-Aug-07 22:41N 51°42' E 004°34'0 0.0
2018-Aug-07 22:11N 51°42' E 004°34'0 0.0
2018-Aug-07 21:47N 51°42' E 004°34'0 0.0
2018-Aug-07 21:23N 51°42' E 004°34'0 0.0
2018-Aug-07 20:56N 51°42' E 004°34'0 0.0
2018-Aug-07 20:26N 51°42' E 004°34'0 0.0
2018-Aug-07 19:50N 51°42' E 004°34'0 0.0
2018-Aug-07 19:29N 51°42' E 004°34'0 0.0
2018-Aug-07 18:59N 51°42' E 004°34'0 0.0
2018-Aug-07 18:26N 51°42' E 004°34'0 0.8
2018-Aug-07 18:00N 51°42' E 004°34'3 6.4
2018-Aug-07 17:30N 51°44' E 004°38'4 8.1
2018-Aug-07 17:00N 51°48' E 004°37'4 8.5
2018-Aug-07 16:30N 51°50' E 004°31'510.0
2018-Aug-07 16:00N 51°51' E 004°23'5 9.2
2018-Aug-07 15:30N 51°54' E 004°18'510.0
2018-Aug-07 15:00N 51°57' E 004°11'611.1
2018-Aug-07 14:30N 51°59' E 004°03'612.7
2018-Aug-07 14:00N 52°01' E 003°53'611.3
2018-Aug-07 13:30N 52°04' E 003°45'4 7.9
2018-Aug-07 13:00N 52°08' E 003°44'0 0.1
2018-Aug-07 12:25N 52°08' E 003°44'0 0.0
2018-Aug-07 11:55N 52°08' E 003°44'0 0.0
2018-Aug-07 11:25N 52°08' E 003°44'0 0.0
2018-Aug-07 10:55N 52°08' E 003°44'0 0.0
2018-Aug-07 10:25N 52°08' E 003°44'0 0.0
2018-Aug-07 09:55N 52°08' E 003°44'0 0.0
2018-Aug-07 09:25N 52°08' E 003°44'0 0.0
2018-Aug-07 08:55N 52°08' E 003°44'0 0.0
2018-Aug-07 08:25N 52°08' E 003°44'0 0.0
2018-Aug-07 07:55N 52°08' E 003°44'0 0.0
2018-Aug-07 07:25N 52°08' E 003°44'0 0.0
2018-Aug-07 06:55N 52°08' E 003°44'0 0.0
2018-Aug-07 06:25N 52°08' E 003°44'0 0.0
2018-Aug-07 05:55N 52°08' E 003°44'0 0.0
2018-Aug-07 05:25N 52°08' E 003°44'0 0.0
2018-Aug-07 04:55N 52°08' E 003°44'0 0.0
2018-Aug-07 04:25N 52°08' E 003°44'0 0.0
2018-Aug-07 03:55N 52°08' E 003°44'0 0.0
2018-Aug-07 03:25N 52°08' E 003°44'0 0.0
2018-Aug-07 02:55N 52°08' E 003°44'0 0.0
2018-Aug-07 02:25N 52°08' E 003°44'0 0.0
2018-Aug-07 01:55N 52°08' E 003°44'0 0.0
2018-Aug-07 01:19N 52°08' E 003°44'0 0.0
2018-Aug-07 00:55N 52°08' E 003°44'0 0.0
2018-Aug-07 00:25N 52°08' E 003°44'0 0.0
2018-Aug-06 23:55N 52°08' E 003°44'0 0.0
2018-Aug-06 23:25N 52°08' E 003°44'0 0.0
2018-Aug-06 22:55N 52°08' E 003°44'0 0.0
2018-Aug-06 22:25N 52°08' E 003°44'0 0.0
2018-Aug-06 21:55N 52°08' E 003°44'0 0.0
2018-Aug-06 21:25N 52°08' E 003°44'0 0.0
2018-Aug-06 20:55N 52°08' E 003°44'0 0.0
2018-Aug-06 20:25N 52°08' E 003°44'0 0.0
2018-Aug-06 19:55N 52°08' E 003°44'0 0.1
2018-Aug-06 19:25N 52°08' E 003°44'0 0.0
2018-Aug-06 18:55N 52°08' E 003°44'0 0.1
2018-Aug-06 18:30N 52°08' E 003°44'4 7.3
2018-Aug-06 18:00N 52°11' E 003°45'714.2
2018-Aug-06 17:30N 52°18' E 003°47'714.5
2018-Aug-06 17:00N 52°25' E 003°49'714.6
2018-Aug-06 16:30N 52°32' E 003°52'714.8
2018-Aug-06 16:00N 52°40' E 003°54'714.8
2018-Aug-06 15:30N 52°47' E 003°57'714.7
2018-Aug-06 15:00N 52°54' E 003°59'713.7
2018-Aug-06 14:30N 52°60' E 004°05'713.8
2018-Aug-06 14:00N 53°04' E 004°14'713.1
2018-Aug-06 13:30N 53°09' E 004°22'612.0
2018-Aug-06 13:00N 53°14' E 004°27'612.3
2018-Aug-06 12:30N 53°20' E 004°31'612.4
2018-Aug-06 12:01N 53°25' E 004°36'611.5
2018-Aug-06 11:30N 53°29' E 004°43'612.2
2018-Aug-06 11:00N 53°31' E 004°53'712.3
2018-Aug-06 10:27N 53°34' E 005°03'612.8
2018-Aug-06 09:59N 53°36' E 005°13'713.3
2018-Aug-06 09:27N 53°38' E 005°24'713.7
2018-Aug-06 08:56N 53°40' E 005°36'613.9
2018-Aug-06 08:30N 53°42' E 005°45'713.9
2018-Aug-06 08:00N 53°44' E 005°56'713.9
2018-Aug-06 07:30N 53°47' E 006°07'713.8
2018-Aug-06 07:00N 53°49' E 006°18'713.5
2018-Aug-06 06:30N 53°51' E 006°29'713.5
2018-Aug-06 06:00N 53°52' E 006°40'713.1
2018-Aug-06 05:30N 53°54' E 006°51'612.8
2018-Aug-06 05:00N 53°56' E 007°02'612.7
2018-Aug-06 04:30N 53°57' E 007°12'612.3
2018-Aug-06 04:01N 53°59' E 007°22'612.1
2018-Aug-06 03:31N 53°60' E 007°32'612.0
2018-Aug-06 03:00N 54°01' E 007°42'612.0
2018-Aug-06 02:31N 54°01' E 007°52'612.0
2018-Aug-06 02:01N 54°01' E 008°02'611.6
2018-Aug-06 01:30N 54°00' E 008°12'611.1
2018-Aug-06 01:00N 53°60' E 008°22'713.2
2018-Aug-06 00:30N 53°58' E 008°33'713.9
2018-Aug-06 00:00N 53°54' E 008°42'612.9
2018-Aug-05 23:30N 53°50' E 008°51'815.6
2018-Aug-05 23:01N 53°52' E 009°04'3 6.2
2018-Aug-05 22:30N 53°54' E 009°09'0 0.5
2018-Aug-05 22:01N 53°54' E 009°09'3 5.3
2018-Aug-05 21:30N 53°56' E 009°12'3 7.0
2018-Aug-05 21:00N 53°58' E 009°16'4 7.3
2018-Aug-05 20:30N 54°02' E 009°18'4 7.4
2018-Aug-05 20:00N 54°05' E 009°20'4 7.7
2018-Aug-05 19:30N 54°09' E 009°22'4 8.7
2018-Aug-05 19:00N 54°11' E 009°29'4 8.5
2018-Aug-05 18:30N 54°13' E 009°35'4 7.9
2018-Aug-05 18:00N 54°16' E 009°38'4 7.3
2018-Aug-05 17:30N 54°19' E 009°43'4 8.3
2018-Aug-05 17:00N 54°22' E 009°48'5 8.1
2018-Aug-05 16:26N 54°21' E 009°55'3 7.4
2018-Aug-05 15:58N 54°22' E 010°01'  
Track history (hours):
 
Tides and Currents Weather Stations Pressure Air Temp Water Temp Dewpoint Dewpoint Depression Visibility Wind Speed Wind Dir Waves Ship Positions

Heinrich

Last reported at 2018-Aug-14 13:26 UTC. Time now 2018-Aug-14 13:45 UTC.
Position N 49°28' E 000°33'.

Length 114 m; draft 6.6 m.

Type: Ship. MMSI: 236165000.

Date/timePositionNaut miles runAvg speedWind from/ knotsBaromVisibWave heightAir tempDewpointWater temp
2018-Aug-14 13:26N 49°28' E 000°33'0 0.1
2018-Aug-14 13:00N 49°28' E 000°33'1 1.4
2018-Aug-14 12:30N 49°28' E 000°32'5 9.0
2018-Aug-14 12:00N 49°27' E 000°25'611.8
2018-Aug-14 11:30N 49°26' E 000°16'611.8
2018-Aug-14 11:00N 49°26' E 000°07'5 9.6
2018-Aug-14 10:30N 49°28' E 000°00'5 9.1
2018-Aug-14 10:00N 49°29' W 000°06'611.4
2018-Aug-14 09:31N 49°34' W 000°11'714.1
2018-Aug-14 09:01N 49°41' W 000°10'714.6
2018-Aug-14 08:31N 49°49' W 000°09'714.8
2018-Aug-14 08:00N 49°56' W 000°08'714.6
2018-Aug-14 07:30N 50°03' W 000°07'713.6
2018-Aug-14 07:00N 50°10' W 000°06'713.6
2018-Aug-14 06:30N 50°17' W 000°05'713.7
2018-Aug-14 05:59N 50°24' W 000°04'1413.4
2018-Aug-14 04:56N 50°31' E 000°16'615.1
2018-Aug-14 04:30N 50°33' E 000°25'714.6
2018-Aug-14 04:00N 50°35' E 000°36'714.0
2018-Aug-14 03:30N 50°39' E 000°45'713.4
2018-Aug-14 03:00N 50°43' E 000°54'612.6
2018-Aug-14 02:30N 50°47' E 001°01'611.8
2018-Aug-14 02:00N 50°50' E 001°09'611.2
2018-Aug-14 01:30N 50°54' E 001°16'510.6
2018-Aug-14 01:00N 50°58' E 001°22'510.6
2018-Aug-14 00:30N 51°02' E 001°27'611.8
2018-Aug-14 00:00N 51°06' E 001°34'612.5
2018-Aug-13 23:30N 51°10' E 001°41'714.2
2018-Aug-13 23:00N 51°16' E 001°48'815.3
2018-Aug-13 22:30N 51°22' E 001°55'611.8
2018-Aug-13 22:01N 51°24' E 002°04'713.6
2018-Aug-13 21:30N 51°21' E 002°14'714.1
2018-Aug-13 21:01N 51°22' E 002°25'714.5
2018-Aug-13 20:30N 51°23' E 002°37'612.0
2018-Aug-13 20:00N 51°22' E 002°46'714.0
2018-Aug-13 19:30N 51°23' E 002°57'714.4
2018-Aug-13 19:01N 51°24' E 003°08'815.1
2018-Aug-13 18:30N 51°24' E 003°21'815.7
2018-Aug-13 18:00N 51°26' E 003°33'611.6
2018-Aug-13 17:30N 51°25' E 003°42'713.8
2018-Aug-13 17:00N 51°21' E 003°51'714.0
2018-Aug-13 16:31N 51°26' E 003°59'611.0
2018-Aug-13 16:00N 51°22' E 004°05'5 9.7
2018-Aug-13 15:30N 51°23' E 004°13'3 6.6
2018-Aug-13 15:01N 51°21' E 004°17'0 0.0
2018-Aug-13 14:30N 51°21' E 004°17'0 0.0
2018-Aug-13 14:00N 51°21' E 004°17'0 0.0
2018-Aug-13 13:30N 51°21' E 004°17'0 0.6
2018-Aug-13 13:00N 51°21' E 004°17'3 6.2
2018-Aug-13 12:30N 51°18' E 004°20'2 4.6
2018-Aug-13 12:00N 51°16' E 004°21'0 0.1
2018-Aug-13 11:30N 51°16' E 004°21'0 0.0
2018-Aug-13 11:00N 51°16' E 004°21'0 0.0
2018-Aug-13 10:21N 51°16' E 004°21'0 0.0
2018-Aug-13 10:00N 51°16' E 004°21'0 0.0
2018-Aug-13 09:21N 51°16' E 004°21'0 0.0
2018-Aug-13 08:51N 51°16' E 004°21'0 0.0
2018-Aug-13 08:27N 51°16' E 004°21'0 0.0
2018-Aug-13 08:00N 51°16' E 004°21'0 0.0
2018-Aug-13 07:30N 51°16' E 004°21'0 0.0
2018-Aug-13 07:00N 51°16' E 004°21'0 0.0
2018-Aug-13 06:30N 51°16' E 004°21'0 0.0
2018-Aug-13 06:00N 51°16' E 004°21'0 0.0
2018-Aug-13 05:30N 51°16' E 004°21'0 0.0
2018-Aug-13 05:00N 51°16' E 004°21'0 0.0
2018-Aug-13 04:24N 51°16' E 004°21'0 0.0
2018-Aug-13 04:00N 51°16' E 004°21'0 0.0
2018-Aug-13 03:30N 51°16' E 004°21'0 0.0
2018-Aug-13 03:00N 51°16' E 004°21'0 0.0
2018-Aug-13 02:30N 51°16' E 004°21'0 0.0
2018-Aug-13 02:00N 51°16' E 004°21'0 0.0
2018-Aug-13 01:24N 51°16' E 004°21'0 0.0
2018-Aug-13 01:00N 51°16' E 004°21'0 0.0
2018-Aug-13 00:27N 51°16' E 004°21'0 0.0
2018-Aug-12 23:45N 51°16' E 004°21'0 0.0
2018-Aug-12 23:30N 51°16' E 004°21'0 0.0
2018-Aug-12 23:00N 51°16' E 004°21'0 0.0
2018-Aug-12 22:24N 51°16' E 004°21'0 0.0
2018-Aug-12 21:57N 51°16' E 004°21'0 0.0
2018-Aug-12 21:24N 51°16' E 004°21'0 0.0
2018-Aug-12 21:00N 51°16' E 004°21'0 0.0
2018-Aug-12 20:30N 51°16' E 004°21'0 0.0
2018-Aug-12 20:00N 51°16' E 004°21'0 0.0
2018-Aug-12 19:30N 51°16' E 004°21'0 0.0
2018-Aug-12 18:57N 51°16' E 004°21'0 0.0
2018-Aug-12 18:30N 51°16' E 004°21'0 0.0
2018-Aug-12 17:57N 51°16' E 004°21'0 0.0
2018-Aug-12 17:30N 51°16' E 004°21'0 0.0
2018-Aug-12 16:57N 51°16' E 004°21'0 0.0
2018-Aug-12 16:30N 51°16' E 004°21'0 0.0
2018-Aug-12 16:00N 51°16' E 004°21'0 0.0
2018-Aug-12 15:24N 51°16' E 004°21'0 0.0
2018-Aug-12 15:00N 51°16' E 004°21'0 0.0
2018-Aug-12 14:30N 51°16' E 004°21'0 0.0
2018-Aug-12 14:00N 51°16' E 004°21'0 0.0
2018-Aug-12 13:30N 51°16' E 004°21'0 0.0
2018-Aug-12 13:00N 51°16' E 004°21'0 0.0
2018-Aug-12 12:30N 51°16' E 004°21'0 0.0
2018-Aug-12 11:57N 51°16' E 004°21'0 0.0
2018-Aug-12 11:30N 51°16' E 004°21'0 0.0
2018-Aug-12 11:00N 51°16' E 004°21'0 0.0
2018-Aug-12 10:30N 51°16' E 004°21'0 0.0
2018-Aug-12 10:00N 51°16' E 004°21'0 0.0
2018-Aug-12 09:27N 51°16' E 004°21'0 0.0
2018-Aug-12 09:00N 51°16' E 004°21'0 0.0
2018-Aug-12 08:24N 51°16' E 004°21'0 0.0
2018-Aug-12 08:00N 51°16' E 004°21'0 0.0
2018-Aug-12 07:30N 51°16' E 004°21'0 0.0
2018-Aug-12 06:54N 51°16' E 004°21'0 0.0
2018-Aug-12 06:30N 51°16' E 004°21'0 0.0
2018-Aug-12 05:57N 51°16' E 004°21'0 0.0
2018-Aug-12 05:30N 51°16' E 004°21'0 0.0
2018-Aug-12 05:00N 51°16' E 004°21'0 0.0
2018-Aug-12 04:30N 51°16' E 004°21'0 0.0
2018-Aug-12 04:00N 51°16' E 004°21'0 0.0
2018-Aug-12 03:30N 51°16' E 004°21'0 0.0
2018-Aug-12 02:57N 51°16' E 004°21'0 0.0
2018-Aug-12 02:30N 51°16' E 004°21'0 0.0
2018-Aug-12 01:57N 51°16' E 004°21'0 0.0
2018-Aug-12 01:30N 51°16' E 004°21'0 0.0
2018-Aug-12 01:00N 51°16' E 004°21'0 0.0
2018-Aug-12 00:30N 51°16' E 004°21'0 0.0
2018-Aug-12 00:00N 51°16' E 004°21'0 0.0
2018-Aug-11 23:30N 51°16' E 004°21'0 0.0
2018-Aug-11 23:00N 51°16' E 004°21'0 0.0
2018-Aug-11 22:30N 51°16' E 004°21'0 0.0
2018-Aug-11 21:51N 51°16' E 004°21'0 0.0
2018-Aug-11 21:30N 51°16' E 004°21'0 0.0
2018-Aug-11 21:00N 51°16' E 004°21'0 0.0
2018-Aug-11 20:30N 51°16' E 004°21'0 0.0
2018-Aug-11 20:00N 51°16' E 004°21'0 0.0
2018-Aug-11 19:21N 51°16' E 004°21'0 0.0
2018-Aug-11 19:00N 51°16' E 004°21'0 0.0
2018-Aug-11 18:27N 51°16' E 004°21'0 0.0
2018-Aug-11 18:00N 51°16' E 004°21'0 0.0
2018-Aug-11 17:30N 51°16' E 004°21'0 0.0
2018-Aug-11 17:00N 51°16' E 004°21'0 0.0
2018-Aug-11 16:30N 51°16' E 004°21'0 0.0
2018-Aug-11 16:00N 51°16' E 004°21'0 0.0
2018-Aug-11 15:21N 51°16' E 004°21'0 0.0
2018-Aug-11 15:00N 51°16' E 004°21'0 0.0
2018-Aug-11 14:30N 51°16' E 004°21'0 0.0
2018-Aug-11 14:00N 51°16' E 004°21'0 0.0
2018-Aug-11 13:30N 51°16' E 004°21'0 0.0
2018-Aug-11 13:00N 51°16' E 004°21'0 0.0
2018-Aug-11 12:30N 51°16' E 004°21'0 0.0
2018-Aug-11 12:00N 51°16' E 004°21'0 0.0
2018-Aug-11 11:30N 51°16' E 004°21'0 0.0
2018-Aug-11 11:00N 51°16' E 004°21'0 0.0
2018-Aug-11 10:30N 51°16' E 004°21'0 0.0
2018-Aug-11 10:00N 51°16' E 004°21'0 0.0
2018-Aug-11 09:21N 51°16' E 004°21'0 0.0
2018-Aug-11 09:00N 51°16' E 004°21'0 0.0
2018-Aug-11 08:30N 51°16' E 004°21'0 0.0
2018-Aug-11 08:00N 51°16' E 004°21'0 0.0
2018-Aug-11 07:30N 51°16' E 004°21'0 0.0
2018-Aug-11 07:00N 51°16' E 004°21'0 0.0
2018-Aug-11 06:30N 51°16' E 004°21'0 0.0
2018-Aug-11 06:00N 51°16' E 004°21'0 0.0
2018-Aug-11 05:27N 51°16' E 004°21'0 0.0
2018-Aug-11 05:00N 51°16' E 004°21'0 0.0
2018-Aug-11 04:30N 51°16' E 004°21'0 0.0
2018-Aug-11 04:00N 51°16' E 004°21'0 0.0
2018-Aug-11 03:30N 51°16' E 004°21'0 0.0
2018-Aug-11 03:00N 51°16' E 004°21'0 0.0
2018-Aug-11 02:30N 51°16' E 004°21'0 0.0
2018-Aug-11 01:57N 51°16' E 004°21'0 0.0
2018-Aug-11 01:30N 51°16' E 004°21'0 0.0
2018-Aug-11 01:00N 51°16' E 004°21'0 0.0
2018-Aug-11 00:30N 51°16' E 004°21'0 0.0
2018-Aug-11 00:00N 51°16' E 004°21'0 0.0
2018-Aug-10 23:27N 51°16' E 004°21'0 0.0
2018-Aug-10 23:00N 51°16' E 004°21'0 0.0
2018-Aug-10 22:24N 51°16' E 004°21'0 0.0
2018-Aug-10 22:00N 51°16' E 004°21'0 0.0
2018-Aug-10 21:30N 51°16' E 004°21'0 0.0
2018-Aug-10 20:57N 51°16' E 004°21'0 0.0
2018-Aug-10 20:30N 51°16' E 004°21'0 0.0
2018-Aug-10 20:00N 51°16' E 004°21'0 0.0
2018-Aug-10 19:30N 51°16' E 004°21'0 0.0
2018-Aug-10 19:00N 51°16' E 004°21'0 0.0
2018-Aug-10 18:30N 51°16' E 004°21'0 0.0
2018-Aug-10 17:51N 51°16' E 004°21'0 0.0
2018-Aug-10 17:30N 51°16' E 004°21'0 0.0
2018-Aug-10 17:00N 51°16' E 004°21'0 0.0
2018-Aug-10 16:30N 51°16' E 004°21'0 0.0
2018-Aug-10 16:00N 51°16' E 004°21'0 0.0
2018-Aug-10 15:30N 51°16' E 004°21'0 0.1
2018-Aug-10 15:00N 51°16' E 004°21'2 3.4
2018-Aug-10 14:30N 51°17' E 004°20'3 5.5
2018-Aug-10 14:00N 51°20' E 004°18'1 2.4
2018-Aug-10 13:31N 51°21' E 004°17'0 0.0
2018-Aug-10 13:00N 51°21' E 004°17'2 3.7
2018-Aug-10 12:30N 51°21' E 004°14'5 9.8
2018-Aug-10 12:01N 51°22' E 004°07'612.3
2018-Aug-10 11:31N 51°25' E 003°58'815.2
2018-Aug-10 11:01N 51°21' E 003°47'815.4
2018-Aug-10 10:30N 51°25' E 003°37'4 8.9
2018-Aug-10 10:00N 51°28' E 003°31'510.9
2018-Aug-10 09:30N 51°32' E 003°25'714.0
2018-Aug-10 09:01N 51°38' E 003°20'713.2
2018-Aug-10 08:30N 51°44' E 003°16'6 1.2
2018-Aug-10 03:30N 51°49' E 003°21'0 0.0
2018-Aug-10 02:57N 51°49' E 003°21'0 0.0
2018-Aug-10 02:24N 51°49' E 003°21'0 0.0
2018-Aug-10 02:00N 51°49' E 003°21'0 0.0
2018-Aug-10 01:30N 51°49' E 003°21'0 0.0
2018-Aug-10 00:57N 51°49' E 003°21'0 0.0
2018-Aug-09 21:36N 51°49' E 003°21'0 0.1
2018-Aug-09 21:24N 51°49' E 003°21'0 0.0
2018-Aug-09 21:00N 51°49' E 003°21'0 0.0
2018-Aug-09 19:24N 51°49' E 003°21'0 0.0
2018-Aug-09 19:00N 51°49' E 003°21'0 0.0
2018-Aug-09 18:27N 51°49' E 003°21'0 0.0
2018-Aug-09 17:54N 51°49' E 003°21'0 0.0
2018-Aug-09 17:21N 51°49' E 003°21'0 0.0
2018-Aug-09 15:51N 51°49' E 003°21'0 0.0
2018-Aug-09 14:27N 51°49' E 003°21'0 0.0
2018-Aug-09 13:06N 51°49' E 003°21'0 0.1
2018-Aug-09 12:51N 51°49' E 003°21'0 0.0
2018-Aug-09 12:24N 51°49' E 003°21'0 0.0
2018-Aug-09 10:12N 51°49' E 003°21'0 0.1
2018-Aug-09 09:57N 51°49' E 003°21'0 0.0
2018-Aug-09 09:30N 51°49' E 003°21'0 0.5
2018-Aug-09 08:59N 51°49' E 003°21'4 8.8
2018-Aug-09 08:29N 51°49' E 003°13'511.1
2018-Aug-09 08:00N 51°50' E 003°05'1011.6
2018-Aug-09 07:06N 52°01' E 003°06'110.6
2018-Aug-09 07:00N 52°02' E 003°06'510.3
2018-Aug-09 06:31N 52°03' E 003°14'610.7
2018-Aug-09 05:59N 52°03' E 003°23'511.1
2018-Aug-09 05:30N 52°03' E 003°32'611.2
2018-Aug-09 05:00N 52°03' E 003°41'510.9
2018-Aug-09 04:30N 52°03' E 003°49'510.0
2018-Aug-09 04:01N 52°01' E 003°57'714.4
2018-Aug-09 03:30N 51°58' E 004°08'713.5
2018-Aug-09 03:01N 51°54' E 004°16'510.2
2018-Aug-09 02:30N 51°51' E 004°22'510.8
2018-Aug-09 02:00N 51°50' E 004°31'4 7.9
2018-Aug-09 01:31N 51°48' E 004°37'4 8.3
2018-Aug-09 01:00N 51°44' E 004°38'3 5.1
2018-Aug-09 00:20N 51°42' E 004°34'0 0.0
2018-Aug-08 23:53N 51°42' E 004°34'0 0.0
2018-Aug-08 23:29N 51°42' E 004°34'0 0.0
2018-Aug-08 22:56N 51°42' E 004°34'0 0.0
2018-Aug-08 22:29N 51°42' E 004°34'0 0.0
2018-Aug-08 21:56N 51°42' E 004°34'0 0.0
2018-Aug-08 21:23N 51°42' E 004°34'0 0.0
2018-Aug-08 20:56N 51°42' E 004°34'0 0.0
2018-Aug-08 20:29N 51°42' E 004°34'0 0.0
2018-Aug-08 19:59N 51°42' E 004°34'0 0.0
2018-Aug-08 19:29N 51°42' E 004°34'0 0.0
2018-Aug-08 18:50N 51°42' E 004°34'0 0.0
2018-Aug-08 18:26N 51°42' E 004°34'0 0.0
2018-Aug-08 17:56N 51°42' E 004°34'0 0.0
2018-Aug-08 17:23N 51°42' E 004°34'0 0.0
2018-Aug-08 16:50N 51°42' E 004°34'0 0.0
2018-Aug-08 16:29N 51°42' E 004°34'0 0.0
2018-Aug-08 15:59N 51°42' E 004°34'0 0.0
2018-Aug-08 15:29N 51°42' E 004°34'0 0.0
2018-Aug-08 14:59N 51°42' E 004°34'0 0.0
2018-Aug-08 14:23N 51°42' E 004°34'0 0.0
2018-Aug-08 13:59N 51°42' E 004°34'0 0.0
2018-Aug-08 13:26N 51°42' E 004°34'0 0.0
2018-Aug-08 12:53N 51°42' E 004°34'0 0.0
2018-Aug-08 12:05N 51°42' E 004°34'0 0.0
2018-Aug-08 11:50N 51°42' E 004°34'0 0.0
2018-Aug-08 11:23N 51°42' E 004°34'0 0.0
2018-Aug-08 10:59N 51°42' E 004°34'0 0.0
2018-Aug-08 10:23N 51°42' E 004°34'0 0.0
2018-Aug-08 09:56N 51°42' E 004°34'0 0.0
2018-Aug-08 09:23N 51°42' E 004°34'0 0.0
2018-Aug-08 08:56N 51°42' E 004°34'0 0.0
2018-Aug-08 07:44N 51°42' E 004°34'0 0.0
2018-Aug-08 07:29N 51°42' E 004°34'0 0.0
2018-Aug-08 06:47N 51°42' E 004°34'0 0.0
2018-Aug-08 06:14N 51°42' E 004°34'0 0.0
2018-Aug-08 05:59N 51°42' E 004°34'0 0.0
2018-Aug-08 05:29N 51°42' E 004°34'0 0.0
2018-Aug-08 04:59N 51°42' E 004°34'0 0.0
2018-Aug-08 04:23N 51°42' E 004°34'0 0.0
2018-Aug-08 03:17N 51°42' E 004°34'0 0.0
2018-Aug-08 02:17N 51°42' E 004°34'0 0.0
2018-Aug-08 01:59N 51°42' E 004°34'0 0.0
2018-Aug-08 01:20N 51°42' E 004°34'0 0.0
2018-Aug-08 00:59N 51°42' E 004°34'0 0.0
2018-Aug-08 00:29N 51°42' E 004°34'0 0.0
2018-Aug-07 23:59N 51°42' E 004°34'0 0.0
2018-Aug-07 23:29N 51°42' E 004°34'0 0.0
2018-Aug-07 22:41N 51°42' E 004°34'0 0.0
2018-Aug-07 22:11N 51°42' E 004°34'0 0.0
2018-Aug-07 21:47N 51°42' E 004°34'0 0.0
2018-Aug-07 21:23N 51°42' E 004°34'0 0.0
2018-Aug-07 20:56N 51°42' E 004°34'0 0.0
2018-Aug-07 20:26N 51°42' E 004°34'0 0.0
2018-Aug-07 19:50N 51°42' E 004°34'0 0.0
2018-Aug-07 19:29N 51°42' E 004°34'0 0.0
2018-Aug-07 18:59N 51°42' E 004°34'0 0.0
2018-Aug-07 18:26N 51°42' E 004°34'0 0.8
2018-Aug-07 18:00N 51°42' E 004°34'3 6.4
2018-Aug-07 17:30N 51°44' E 004°38'4 8.1
2018-Aug-07 17:00N 51°48' E 004°37'4 8.5
2018-Aug-07 16:30N 51°50' E 004°31'510.0
2018-Aug-07 16:00N 51°51' E 004°23'5 9.2
2018-Aug-07 15:30N 51°54' E 004°18'510.0
2018-Aug-07 15:00N 51°57' E 004°11'611.1
2018-Aug-07 14:30N 51°59' E 004°03'612.7
2018-Aug-07 14:00N 52°01' E 003°53'611.3
2018-Aug-07 13:30N 52°04' E 003°45'4 7.9
2018-Aug-07 13:00N 52°08' E 003°44'0 0.1
2018-Aug-07 12:25N 52°08' E 003°44'0 0.0
2018-Aug-07 11:55N 52°08' E 003°44'0 0.0
2018-Aug-07 11:25N 52°08' E 003°44'0 0.0
2018-Aug-07 10:55N 52°08' E 003°44'0 0.0
2018-Aug-07 10:25N 52°08' E 003°44'0 0.0
2018-Aug-07 09:55N 52°08' E 003°44'0 0.0
2018-Aug-07 09:25N 52°08' E 003°44'0 0.0
2018-Aug-07 08:55N 52°08' E 003°44'0 0.0
2018-Aug-07 08:25N 52°08' E 003°44'0 0.0
2018-Aug-07 07:55N 52°08' E 003°44'0 0.0
2018-Aug-07 07:25N 52°08' E 003°44'0 0.0
2018-Aug-07 06:55N 52°08' E 003°44'0 0.0
2018-Aug-07 06:25N 52°08' E 003°44'0 0.0
2018-Aug-07 05:55N 52°08' E 003°44'0 0.0
2018-Aug-07 05:25N 52°08' E 003°44'0 0.0
2018-Aug-07 04:55N 52°08' E 003°44'0 0.0
2018-Aug-07 04:25N 52°08' E 003°44'0 0.0
2018-Aug-07 03:55N 52°08' E 003°44'0 0.0
2018-Aug-07 03:25N 52°08' E 003°44'0 0.0
2018-Aug-07 02:55N 52°08' E 003°44'0 0.0
2018-Aug-07 02:25N 52°08' E 003°44'0 0.0
2018-Aug-07 01:55N 52°08' E 003°44'0 0.0
2018-Aug-07 01:19N 52°08' E 003°44'0 0.0
2018-Aug-07 00:55N 52°08' E 003°44'0 0.0
2018-Aug-07 00:25N 52°08' E 003°44'0 0.0
2018-Aug-06 23:55N 52°08' E 003°44'0 0.0
2018-Aug-06 23:25N 52°08' E 003°44'0 0.0
2018-Aug-06 22:55N 52°08' E 003°44'0 0.0
2018-Aug-06 22:25N 52°08' E 003°44'0 0.0
2018-Aug-06 21:55N 52°08' E 003°44'0 0.0
2018-Aug-06 21:25N 52°08' E 003°44'0 0.0
2018-Aug-06 20:55N 52°08' E 003°44'0 0.0
2018-Aug-06 20:25N 52°08' E 003°44'0 0.0
2018-Aug-06 19:55N 52°08' E 003°44'0 0.1
2018-Aug-06 19:25N 52°08' E 003°44'0 0.0
2018-Aug-06 18:55N 52°08' E 003°44'0 0.1
2018-Aug-06 18:30N 52°08' E 003°44'4 7.3
2018-Aug-06 18:00N 52°11' E 003°45'714.2
2018-Aug-06 17:30N 52°18' E 003°47'714.5
2018-Aug-06 17:00N 52°25' E 003°49'714.6
2018-Aug-06 16:30N 52°32' E 003°52'714.8
2018-Aug-06 16:00N 52°40' E 003°54'714.8
2018-Aug-06 15:30N 52°47' E 003°57'714.7
2018-Aug-06 15:00N 52°54' E 003°59'713.7
2018-Aug-06 14:30N 52°60' E 004°05'713.8
2018-Aug-06 14:00N 53°04' E 004°14'713.1
2018-Aug-06 13:30N 53°09' E 004°22'612.0
2018-Aug-06 13:00N 53°14' E 004°27'612.3
2018-Aug-06 12:30N 53°20' E 004°31'612.4
2018-Aug-06 12:01N 53°25' E 004°36'611.5
2018-Aug-06 11:30N 53°29' E 004°43'612.2
2018-Aug-06 11:00N 53°31' E 004°53'712.3
2018-Aug-06 10:27N 53°34' E 005°03'612.8
2018-Aug-06 09:59N 53°36' E 005°13'713.3
2018-Aug-06 09:27N 53°38' E 005°24'713.7
2018-Aug-06 08:56N 53°40' E 005°36'613.9
2018-Aug-06 08:30N 53°42' E 005°45'713.9
2018-Aug-06 08:00N 53°44' E 005°56'713.9
2018-Aug-06 07:30N 53°47' E 006°07'713.8
2018-Aug-06 07:00N 53°49' E 006°18'713.5
2018-Aug-06 06:30N 53°51' E 006°29'713.5
2018-Aug-06 06:00N 53°52' E 006°40'713.1
2018-Aug-06 05:30N 53°54' E 006°51'612.8
2018-Aug-06 05:00N 53°56' E 007°02'612.7
2018-Aug-06 04:30N 53°57' E 007°12'612.3
2018-Aug-06 04:01N 53°59' E 007°22'612.1
2018-Aug-06 03:31N 53°60' E 007°32'612.0
2018-Aug-06 03:00N 54°01' E 007°42'612.0
2018-Aug-06 02:31N 54°01' E 007°52'612.0
2018-Aug-06 02:01N 54°01' E 008°02'611.6
2018-Aug-06 01:30N 54°00' E 008°12'611.1
2018-Aug-06 01:00N 53°60' E 008°22'713.2
2018-Aug-06 00:30N 53°58' E 008°33'713.9
2018-Aug-06 00:00N 53°54' E 008°42'612.9
2018-Aug-05 23:30N 53°50' E 008°51'815.6
2018-Aug-05 23:01N 53°52' E 009°04'3 6.2
2018-Aug-05 22:30N 53°54' E 009°09'0 0.5
2018-Aug-05 22:01N 53°54' E 009°09'3 5.3
2018-Aug-05 21:30N 53°56' E 009°12'3 7.0
2018-Aug-05 21:00N 53°58' E 009°16'4 7.3
2018-Aug-05 20:30N 54°02' E 009°18'4 7.4
2018-Aug-05 20:00N 54°05' E 009°20'4 7.7
2018-Aug-05 19:30N 54°09' E 009°22'4 8.7
2018-Aug-05 19:00N 54°11' E 009°29'4 8.5
2018-Aug-05 18:30N 54°13' E 009°35'4 7.9
2018-Aug-05 18:00N 54°16' E 009°38'4 7.3
2018-Aug-05 17:30N 54°19' E 009°43'4 8.3
2018-Aug-05 17:00N 54°22' E 009°48'5 8.1
2018-Aug-05 16:26N 54°21' E 009°55'3 7.4
2018-Aug-05 15:58N 54°22' E 010°01'  

Dump ship's entire track history